createdAt,value
2023-03-22T00:02:26.176Z,61.80
2023-03-22T00:05:17.118Z,61.80
2023-03-22T00:08:08.358Z,62.10
2023-03-22T00:10:57.702Z,62.00
2023-03-22T00:13:47.117Z,62.20
2023-03-22T00:16:36.467Z,62.30
2023-03-22T00:19:26.707Z,62.40
2023-03-22T00:22:17.390Z,62.40
2023-03-22T00:25:08.184Z,62.60
2023-03-22T00:27:57.447Z,62.70
2023-03-22T00:30:54.573Z,62.70
2023-03-22T00:33:43.875Z,63.40
2023-03-22T00:36:33.159Z,62.80
2023-03-22T00:39:23.822Z,62.70
2023-03-22T00:42:13.128Z,62.60
2023-03-22T00:45:02.528Z,62.40
2023-03-22T00:47:51.888Z,62.40
2023-03-22T00:50:42.066Z,62.40
2023-03-22T00:53:32.946Z,62.50
2023-03-22T00:56:25.531Z,62.60
2023-03-22T00:59:23.583Z,62.80
2023-03-22T01:02:14.360Z,62.80
2023-03-22T01:05:06.687Z,62.90
2023-03-22T01:07:56.869Z,62.80
2023-03-22T01:10:46.557Z,62.80
2023-03-22T01:13:38.876Z,62.70
2023-03-22T01:16:28.208Z,62.50
2023-03-22T01:19:17.666Z,62.20
2023-03-22T01:22:08.458Z,62.40
2023-03-22T01:24:58.243Z,62.20
2023-03-22T01:27:47.987Z,62.00
2023-03-22T01:30:41.398Z,61.80
2023-03-22T01:33:31.169Z,61.80
2023-03-22T01:36:20.913Z,61.60
2023-03-22T01:39:10.476Z,61.40
2023-03-22T01:42:00.924Z,61.50
2023-03-22T01:45:41.227Z,61.50
2023-03-22T01:48:34.461Z,62.20
2023-03-22T01:51:26.124Z,61.40
2023-03-22T01:54:32.966Z,61.30
2023-03-22T01:57:25.596Z,61.50
2023-03-22T02:00:18.862Z,61.30
2023-03-22T02:03:40.695Z,61.20
2023-03-22T02:06:32.417Z,61.60
2023-03-22T02:09:30.443Z,61.20
2023-03-22T02:12:33.039Z,61.20
2023-03-22T02:15:35.048Z,61.60
2023-03-22T02:19:02.003Z,61.50
2023-03-22T02:22:23.206Z,61.90
2023-03-22T02:25:38.707Z,61.90
2023-03-22T02:28:44.210Z,61.90
2023-03-22T02:32:13.255Z,61.60
2023-03-22T02:35:44.270Z,62.00
2023-03-22T02:39:17.520Z,62.20
2023-03-22T02:42:41.599Z,62.10
2023-03-22T02:45:36.038Z,61.60
2023-03-22T02:48:31.147Z,61.40
2023-03-22T02:51:26.110Z,61.40
2023-03-22T02:54:22.582Z,61.40
2023-03-22T02:57:16.843Z,61.50
2023-03-22T03:00:12.382Z,61.30
2023-03-22T03:03:11.464Z,62.00
2023-03-22T03:06:08.449Z,61.50
2023-03-22T03:09:02.651Z,61.60
2023-03-22T03:11:55.388Z,61.30
2023-03-22T03:14:44.795Z,61.60
2023-03-22T03:17:53.359Z,61.40
2023-03-22T03:20:55.718Z,62.10
2023-03-22T03:23:52.317Z,61.80
2023-03-22T03:26:50.756Z,61.80
2023-03-22T03:29:46.403Z,61.80
2023-03-22T03:32:42.060Z,61.80
2023-03-22T03:35:38.388Z,61.70
2023-03-22T03:38:30.981Z,61.90
2023-03-22T03:41:25.956Z,62.00
2023-03-22T03:44:16.328Z,62.20
2023-03-22T03:47:09.877Z,62.20
2023-03-22T03:49:59.429Z,62.60
2023-03-22T03:52:48.824Z,62.50
2023-03-22T03:55:38.350Z,62.60
2023-03-22T03:58:30.497Z,62.70
2023-03-22T04:01:20.911Z,62.90
2023-03-22T04:04:34.811Z,63.10
2023-03-22T04:07:24.626Z,63.30
2023-03-22T04:10:14.067Z,63.30
2023-03-22T04:13:03.379Z,63.40
2023-03-22T04:15:57.482Z,64.20
2023-03-22T04:18:47.187Z,64.00
2023-03-22T04:21:38.691Z,63.80
2023-03-22T04:24:29.433Z,64.00
2023-03-22T04:27:20.069Z,64.00
2023-03-22T04:30:30.992Z,64.20
2023-03-22T04:33:40.354Z,63.90
2023-03-22T04:36:40.037Z,63.70
2023-03-22T04:39:38.745Z,63.70
2023-03-22T04:42:49.149Z,63.80
2023-03-22T04:45:47.350Z,63.90
2023-03-22T04:48:41.911Z,63.90
2023-03-22T04:51:33.018Z,64.10
2023-03-22T04:54:38.181Z,64.10
2023-03-22T04:57:28.676Z,64.30
2023-03-22T05:00:21.744Z,64.30
2023-03-22T05:03:11.597Z,64.30
2023-03-22T05:06:09.791Z,65.10
2023-03-22T05:09:16.393Z,64.70
2023-03-22T05:12:07.645Z,64.80
2023-03-22T05:15:11.132Z,65.20
2023-03-22T05:18:01.608Z,65.20
2023-03-22T05:20:51.171Z,65.50
2023-03-22T05:23:47.114Z,65.70
2023-03-22T05:26:38.078Z,65.90
2023-03-22T05:29:29.215Z,66.10
2023-03-22T05:32:30.126Z,66.60
2023-03-22T05:35:19.631Z,66.60
2023-03-22T05:38:14.517Z,66.80
2023-03-22T05:41:08.828Z,66.80
2023-03-22T05:43:58.927Z,67.40
2023-03-22T05:46:49.894Z,68.10
2023-03-22T05:50:01.698Z,69.20
2023-03-22T05:52:53.360Z,69.60
2023-03-22T05:55:53.102Z,69.60
2023-03-22T05:58:43.169Z,69.70
2023-03-22T06:01:35.528Z,69.60
2023-03-22T06:04:35.999Z,69.40
2023-03-22T06:07:31.596Z,69.10
2023-03-22T06:10:32.951Z,68.40
2023-03-22T06:13:23.119Z,68.10
2023-03-22T06:16:13.022Z,67.90
2023-03-22T06:19:04.681Z,67.80
2023-03-22T06:21:55.902Z,67.70
2023-03-22T06:24:48.202Z,67.80
2023-03-22T06:27:42.425Z,67.50
2023-03-22T06:30:31.962Z,67.30
2023-03-22T06:33:47.385Z,67.30
2023-03-22T06:36:48.879Z,67.20
2023-03-22T06:39:59.795Z,67.20
2023-03-22T06:42:49.549Z,67.20
2023-03-22T06:45:41.146Z,67.10
2023-03-22T06:48:30.585Z,67.30
2023-03-22T06:51:24.855Z,67.30
2023-03-22T06:54:16.038Z,67.40
2023-03-22T06:57:06.834Z,67.50
2023-03-22T06:59:56.238Z,67.80
2023-03-22T07:02:45.583Z,67.80
2023-03-22T07:05:50.301Z,67.80
2023-03-22T07:08:40.154Z,67.90
2023-03-22T07:11:31.085Z,68.20
2023-03-22T07:14:24.092Z,68.50
2023-03-22T07:17:31.241Z,68.40
2023-03-22T07:20:21.390Z,68.40
2023-03-22T07:23:11.841Z,68.90
2023-03-22T07:26:09.038Z,68.20
2023-03-22T07:29:01.454Z,68.30
2023-03-22T07:31:55.756Z,68.60
2023-03-22T07:34:49.257Z,70.30
2023-03-22T07:37:41.537Z,71.50
2023-03-22T07:40:40.364Z,72.30
2023-03-22T07:43:30.224Z,76.60
2023-03-22T07:46:31.579Z,81.50
2023-03-22T07:49:41.549Z,84.70
2023-03-22T07:52:35.698Z,84.50
2023-03-22T07:55:25.851Z,83.50
2023-03-22T07:58:15.321Z,80.10
2023-03-22T08:01:09.027Z,78.60
2023-03-22T08:04:16.732Z,77.20
2023-03-22T08:07:18.498Z,77.10
2023-03-22T08:10:08.855Z,75.30
2023-03-22T08:12:58.353Z,74.30
2023-03-22T08:15:49.226Z,73.40
2023-03-22T08:18:42.543Z,72.10
2023-03-22T08:21:33.208Z,69.80
2023-03-22T08:24:24.731Z,67.70
2023-03-22T08:27:28.507Z,65.00
2023-03-22T08:30:21.981Z,63.70
2023-03-22T08:33:11.392Z,62.10
2023-03-22T08:36:07.817Z,60.50
2023-03-22T08:39:03.201Z,58.40
2023-03-22T08:42:07.159Z,59.00
2023-03-22T08:44:57.870Z,57.20
2023-03-22T08:47:50.070Z,57.10
2023-03-22T08:50:42.514Z,56.60
2023-03-22T08:53:40.879Z,56.30
2023-03-22T08:56:50.240Z,56.40
2023-03-22T09:00:00.639Z,56.40
2023-03-22T09:03:13.094Z,56.20
2023-03-22T09:06:03.477Z,56.30
2023-03-22T09:08:58.383Z,56.30
2023-03-22T09:11:48.695Z,56.40
2023-03-22T09:14:38.156Z,56.80
2023-03-22T09:17:29.310Z,57.40
2023-03-22T09:20:19.346Z,57.90
2023-03-22T09:23:10.133Z,58.20
2023-03-22T09:26:02.484Z,58.50
2023-03-22T09:28:53.081Z,58.20
2023-03-22T09:31:42.509Z,58.60
2023-03-22T09:34:46.889Z,58.60
2023-03-22T09:37:36.618Z,58.40
2023-03-22T09:40:30.391Z,58.50
2023-03-22T09:43:21.287Z,58.00
2023-03-22T09:46:17.474Z,57.60
2023-03-22T09:49:13.647Z,56.10
2023-03-22T09:52:07.439Z,55.00
2023-03-22T09:54:56.816Z,54.50
2023-03-22T09:57:53.649Z,54.50
2023-03-22T10:00:48.933Z,53.70
2023-03-22T10:04:25.248Z,54.20
2023-03-22T10:07:27.491Z,51.50
2023-03-22T10:10:20.234Z,52.00
2023-03-22T10:13:19.810Z,51.80
2023-03-22T10:16:14.906Z,51.10
2023-03-22T10:19:13.812Z,51.00
2023-03-22T10:22:05.972Z,51.40
2023-03-22T10:24:57.710Z,51.80
2023-03-22T10:27:50.618Z,51.60
2023-03-22T10:30:42.439Z,51.40
2023-03-22T10:33:50.133Z,51.40
2023-03-22T10:36:42.674Z,50.90
2023-03-22T10:39:35.760Z,51.10
2023-03-22T10:42:29.725Z,51.00
2023-03-22T10:45:19.633Z,51.30
2023-03-22T10:48:18.027Z,52.40
2023-03-22T10:51:11.017Z,52.30
2023-03-22T10:54:02.947Z,53.60
2023-03-22T10:56:52.317Z,52.60
2023-03-22T10:59:51.148Z,53.20
2023-03-22T11:02:49.467Z,52.70
2023-03-22T11:05:39.012Z,53.40
2023-03-22T11:08:28.585Z,53.50
2023-03-22T11:11:23.361Z,54.00
2023-03-22T11:14:16.671Z,53.40
2023-03-22T11:17:14.638Z,53.10
2023-03-22T11:20:09.858Z,52.30
2023-03-22T11:23:05.280Z,52.90
2023-03-22T11:25:58.164Z,52.90
2023-03-22T11:28:51.743Z,53.50
2023-03-22T11:31:56.269Z,53.80
2023-03-22T11:34:47.469Z,52.20
2023-03-22T11:37:42.716Z,52.30
2023-03-22T11:40:36.173Z,50.40
2023-03-22T11:43:28.782Z,49.50
2023-03-22T11:46:20.012Z,48.90
2023-03-22T11:49:15.257Z,48.20
2023-03-22T11:52:13.950Z,48.10
2023-03-22T11:55:04.053Z,47.80
2023-03-22T11:57:56.980Z,48.20
2023-03-22T12:00:46.554Z,47.90
2023-03-22T12:03:39.836Z,48.10
2023-03-22T12:06:34.565Z,48.20
2023-03-22T12:09:43.128Z,48.20
2023-03-22T12:12:37.127Z,48.20
2023-03-22T12:15:30.800Z,48.40
2023-03-22T12:18:29.025Z,48.20
2023-03-22T12:21:18.379Z,48.10
2023-03-22T12:24:29.772Z,48.20
2023-03-22T12:27:24.444Z,47.60
2023-03-22T12:30:19.081Z,47.90
2023-03-22T12:33:13.409Z,47.50
2023-03-22T12:36:06.881Z,47.60
2023-03-22T12:38:58.930Z,47.80
2023-03-22T12:41:52.374Z,48.00
2023-03-22T12:44:55.529Z,48.00
2023-03-22T12:47:52.643Z,47.10
2023-03-22T12:50:48.647Z,47.50
2023-03-22T12:53:43.327Z,47.50
2023-03-22T12:56:39.541Z,47.50
2023-03-22T12:59:31.740Z,47.50
2023-03-22T13:02:27.841Z,47.60
2023-03-22T13:05:19.593Z,47.50
2023-03-22T13:08:10.277Z,47.40
2023-03-22T13:11:03.826Z,47.40
2023-03-22T13:13:53.296Z,47.30
2023-03-22T13:16:53.316Z,47.50
2023-03-22T13:19:54.592Z,47.30
2023-03-22T13:23:27.985Z,47.30
2023-03-22T13:26:18.027Z,47.30
2023-03-22T13:29:18.588Z,47.90
2023-03-22T13:32:30.180Z,48.00
2023-03-22T13:35:29.817Z,47.80
2023-03-22T13:38:23.919Z,48.00
2023-03-22T13:41:23.373Z,48.10
2023-03-22T13:44:26.968Z,48.00
2023-03-22T13:47:35.981Z,48.00
2023-03-22T13:50:30.797Z,47.90
2023-03-22T13:53:30.023Z,48.00
2023-03-22T13:56:35.346Z,47.90
2023-03-22T13:59:30.861Z,47.50
2023-03-22T14:02:27.858Z,47.60
2023-03-22T14:05:23.291Z,47.50
2023-03-22T14:08:22.937Z,47.50
2023-03-22T14:11:24.158Z,47.30
2023-03-22T14:14:18.444Z,47.40
2023-03-22T14:17:21.517Z,47.60
2023-03-22T14:20:19.190Z,47.10
